sensor_id;sensor_type;location;lat;lon;timestamp;P1;durP1;ratioP1;P2;durP2;ratioP2
24153;SDS011;12312;53.362;-1.518;2023-06-14T00:01:40;15.45;;;4.97;;
24153;SDS011;12312;53.362;-1.518;2023-06-14T00:04:23;14.43;;;4.40;;
24153;SDS011;12312;53.362;-1.518;2023-06-14T00:07:08;15.48;;;4.88;;
24153;SDS011;12312;53.362;-1.518;2023-06-14T00:09:53;12.05;;;4.68;;
24153;SDS011;12312;53.362;-1.518;2023-06-14T00:12:37;14.13;;;4.95;;
24153;SDS011;12312;53.362;-1.518;2023-06-14T00:15:22;12.40;;;5.82;;
24153;SDS011;12312;53.362;-1.518;2023-06-14T00:18:07;14.02;;;5.50;;
24153;SDS011;12312;53.362;-1.518;2023-06-14T00:20:55;14.82;;;5.43;;
24153;SDS011;12312;53.362;-1.518;2023-06-14T00:23:39;11.45;;;5.18;;
24153;SDS011;12312;53.362;-1.518;2023-06-14T00:26:24;16.17;;;5.57;;
24153;SDS011;12312;53.362;-1.518;2023-06-14T00:29:09;15.03;;;5.43;;
24153;SDS011;12312;53.362;-1.518;2023-06-14T00:31:53;17.35;;;6.18;;
24153;SDS011;12312;53.362;-1.518;2023-06-14T00:34:37;14.30;;;5.50;;
24153;SDS011;12312;53.362;-1.518;2023-06-14T00:37:21;15.02;;;5.93;;
24153;SDS011;12312;53.362;-1.518;2023-06-14T00:40:05;18.05;;;5.32;;
24153;SDS011;12312;53.362;-1.518;2023-06-14T00:42:50;16.13;;;5.70;;
24153;SDS011;12312;53.362;-1.518;2023-06-14T00:45:34;13.98;;;6.43;;
24153;SDS011;12312;53.362;-1.518;2023-06-14T00:48:19;15.05;;;6.10;;
24153;SDS011;12312;53.362;-1.518;2023-06-14T00:51:03;18.75;;;6.28;;
24153;SDS011;12312;53.362;-1.518;2023-06-14T00:53:47;15.32;;;6.93;;
24153;SDS011;12312;53.362;-1.518;2023-06-14T00:56:31;15.95;;;6.13;;
24153;SDS011;12312;53.362;-1.518;2023-06-14T00:59:16;15.10;;;6.72;;
24153;SDS011;12312;53.362;-1.518;2023-06-14T01:02:00;14.32;;;6.60;;
24153;SDS011;12312;53.362;-1.518;2023-06-14T01:04:47;14.35;;;6.93;;
24153;SDS011;12312;53.362;-1.518;2023-06-14T01:13:40;14.48;;;7.30;;
24153;SDS011;12312;53.362;-1.518;2023-06-14T01:16:29;17.67;;;7.03;;
24153;SDS011;12312;53.362;-1.518;2023-06-14T01:22:00;12.90;;;6.53;;
24153;SDS011;12312;53.362;-1.518;2023-06-14T01:24:45;14.80;;;6.60;;
24153;SDS011;12312;53.362;-1.518;2023-06-14T01:27:29;13.88;;;6.88;;
24153;SDS011;12312;53.362;-1.518;2023-06-14T01:30:16;10.85;;;6.68;;
24153;SDS011;12312;53.362;-1.518;2023-06-14T01:33:01;12.35;;;7.07;;
24153;SDS011;12312;53.362;-1.518;2023-06-14T01:35:50;18.02;;;7.25;;
24153;SDS011;12312;53.362;-1.518;2023-06-14T01:38:35;13.57;;;7.07;;
24153;SDS011;12312;53.362;-1.518;2023-06-14T01:41:21;15.50;;;6.85;;
24153;SDS011;12312;53.362;-1.518;2023-06-14T01:44:06;16.70;;;6.40;;
24153;SDS011;12312;53.362;-1.518;2023-06-14T01:46:51;11.38;;;6.22;;
24153;SDS011;12312;53.362;-1.518;2023-06-14T01:49:35;11.60;;;6.55;;
24153;SDS011;12312;53.362;-1.518;2023-06-14T01:52:19;11.52;;;5.97;;
24153;SDS011;12312;53.362;-1.518;2023-06-14T01:55:06;11.77;;;5.93;;
24153;SDS011;12312;53.362;-1.518;2023-06-14T01:57:51;14.93;;;6.80;;
24153;SDS011;12312;53.362;-1.518;2023-06-14T02:00:37;11.52;;;6.30;;
24153;SDS011;12312;53.362;-1.518;2023-06-14T02:03:21;10.98;;;6.38;;
24153;SDS011;12312;53.362;-1.518;2023-06-14T02:06:05;13.57;;;6.43;;
24153;SDS011;12312;53.362;-1.518;2023-06-14T02:08:49;12.75;;;6.32;;
24153;SDS011;12312;53.362;-1.518;2023-06-14T02:11:33;10.85;;;5.43;;
24153;SDS011;12312;53.362;-1.518;2023-06-14T02:14:17;11.23;;;5.65;;
24153;SDS011;12312;53.362;-1.518;2023-06-14T02:17:01;14.30;;;6.30;;
24153;SDS011;12312;53.362;-1.518;2023-06-14T02:19:45;12.15;;;5.88;;
24153;SDS011;12312;53.362;-1.518;2023-06-14T02:22:29;10.70;;;6.47;;
24153;SDS011;12312;53.362;-1.518;2023-06-14T02:25:13;12.38;;;6.05;;
24153;SDS011;12312;53.362;-1.518;2023-06-14T02:27:57;10.75;;;5.18;;
24153;SDS011;12312;53.362;-1.518;2023-06-14T02:30:41;7.40;;;4.65;;
24153;SDS011;12312;53.362;-1.518;2023-06-14T02:33:27;8.23;;;4.60;;
24153;SDS011;12312;53.362;-1.518;2023-06-14T02:36:39;9.93;;;4.88;;
24153;SDS011;12312;53.362;-1.518;2023-06-14T02:42:09;11.50;;;4.68;;
24153;SDS011;12312;53.362;-1.518;2023-06-14T02:44:54;8.30;;;4.70;;
24153;SDS011;12312;53.362;-1.518;2023-06-14T02:47:39;10.63;;;5.07;;
24153;SDS011;12312;53.362;-1.518;2023-06-14T02:50:23;13.77;;;4.78;;
24153;SDS011;12312;53.362;-1.518;2023-06-14T02:53:07;7.10;;;4.50;;
24153;SDS011;12312;53.362;-1.518;2023-06-14T02:55:52;9.98;;;4.40;;
24153;SDS011;12312;53.362;-1.518;2023-06-14T02:58:36;9.95;;;4.82;;
24153;SDS011;12312;53.362;-1.518;2023-06-14T03:01:21;9.55;;;4.15;;
24153;SDS011;12312;53.362;-1.518;2023-06-14T03:04:05;9.55;;;4.82;;
24153;SDS011;12312;53.362;-1.518;2023-06-14T03:06:49;8.88;;;4.70;;
24153;SDS011;12312;53.362;-1.518;2023-06-14T03:09:33;9.35;;;4.65;;
24153;SDS011;12312;53.362;-1.518;2023-06-14T03:12:18;10.98;;;4.65;;
24153;SDS011;12312;53.362;-1.518;2023-06-14T03:15:02;10.98;;;5.18;;
24153;SDS011;12312;53.362;-1.518;2023-06-14T03:17:46;11.50;;;4.88;;
24153;SDS011;12312;53.362;-1.518;2023-06-14T03:20:32;8.35;;;4.63;;
24153;SDS011;12312;53.362;-1.518;2023-06-14T03:23:16;12.07;;;5.30;;
24153;SDS011;12312;53.362;-1.518;2023-06-14T03:26:01;9.10;;;4.97;;
24153;SDS011;12312;53.362;-1.518;2023-06-14T03:28:45;12.13;;;4.88;;
24153;SDS011;12312;53.362;-1.518;2023-06-14T03:31:29;9.43;;;5.18;;
24153;SDS011;12312;53.362;-1.518;2023-06-14T03:34:17;12.32;;;5.15;;
24153;SDS011;12312;53.362;-1.518;2023-06-14T03:37:01;10.25;;;5.25;;
24153;SDS011;12312;53.362;-1.518;2023-06-14T03:39:45;10.80;;;5.22;;
24153;SDS011;12312;53.362;-1.518;2023-06-14T03:42:31;11.52;;;5.90;;
24153;SDS011;12312;53.362;-1.518;2023-06-14T03:45:14;12.38;;;5.55;;
24153;SDS011;12312;53.362;-1.518;2023-06-14T03:47:58;10.82;;;5.60;;
24153;SDS011;12312;53.362;-1.518;2023-06-14T03:50:44;14.68;;;5.53;;
24153;SDS011;12312;53.362;-1.518;2023-06-14T03:53:28;14.68;;;5.30;;
24153;SDS011;12312;53.362;-1.518;2023-06-14T03:56:13;13.30;;;6.07;;
24153;SDS011;12312;53.362;-1.518;2023-06-14T03:58:57;9.13;;;5.18;;
24153;SDS011;12312;53.362;-1.518;2023-06-14T04:01:41;9.55;;;4.75;;
24153;SDS011;12312;53.362;-1.518;2023-06-14T04:04:28;10.13;;;5.05;;
24153;SDS011;12312;53.362;-1.518;2023-06-14T04:07:13;11.32;;;5.47;;
24153;SDS011;12312;53.362;-1.518;2023-06-14T04:09:58;9.63;;;4.93;;
24153;SDS011;12312;53.362;-1.518;2023-06-14T04:12:42;13.23;;;5.50;;
24153;SDS011;12312;53.362;-1.518;2023-06-14T04:15:26;8.35;;;4.97;;
24153;SDS011;12312;53.362;-1.518;2023-06-14T04:18:13;12.43;;;5.10;;
24153;SDS011;12312;53.362;-1.518;2023-06-14T04:20:57;13.52;;;5.15;;
24153;SDS011;12312;53.362;-1.518;2023-06-14T04:23:41;11.73;;;4.82;;
24153;SDS011;12312;53.362;-1.518;2023-06-14T04:26:27;10.05;;;4.82;;
24153;SDS011;12312;53.362;-1.518;2023-06-14T04:29:13;8.63;;;5.07;;
24153;SDS011;12312;53.362;-1.518;2023-06-14T04:31:59;10.80;;;5.15;;
24153;SDS011;12312;53.362;-1.518;2023-06-14T04:34:44;8.95;;;4.60;;
24153;SDS011;12312;53.362;-1.518;2023-06-14T04:37:28;10.25;;;5.07;;
24153;SDS011;12312;53.362;-1.518;2023-06-14T04:40:14;9.45;;;5.07;;
24153;SDS011;12312;53.362;-1.518;2023-06-14T04:42:58;9.57;;;4.78;;
24153;SDS011;12312;53.362;-1.518;2023-06-14T04:45:42;8.88;;;4.43;;
24153;SDS011;12312;53.362;-1.518;2023-06-14T04:48:30;9.13;;;5.50;;
24153;SDS011;12312;53.362;-1.518;2023-06-14T04:51:15;8.13;;;4.38;;
24153;SDS011;12312;53.362;-1.518;2023-06-14T04:53:59;11.65;;;5.32;;
24153;SDS011;12312;53.362;-1.518;2023-06-14T04:56:43;11.02;;;4.93;;
24153;SDS011;12312;53.362;-1.518;2023-06-14T04:59:27;10.45;;;5.43;;
24153;SDS011;12312;53.362;-1.518;2023-06-14T05:02:11;11.65;;;5.28;;
24153;SDS011;12312;53.362;-1.518;2023-06-14T05:04:55;8.52;;;4.78;;
24153;SDS011;12312;53.362;-1.518;2023-06-14T05:07:40;8.68;;;4.97;;
24153;SDS011;12312;53.362;-1.518;2023-06-14T05:10:24;10.60;;;5.15;;
24153;SDS011;12312;53.362;-1.518;2023-06-14T05:13:08;11.68;;;4.78;;
24153;SDS011;12312;53.362;-1.518;2023-06-14T05:15:54;11.73;;;4.88;;
24153;SDS011;12312;53.362;-1.518;2023-06-14T05:18:41;10.60;;;5.10;;
24153;SDS011;12312;53.362;-1.518;2023-06-14T05:21:25;13.20;;;5.22;;
24153;SDS011;12312;53.362;-1.518;2023-06-14T05:24:09;9.52;;;4.63;;
24153;SDS011;12312;53.362;-1.518;2023-06-14T05:26:55;11.32;;;5.32;;
24153;SDS011;12312;53.362;-1.518;2023-06-14T05:29:39;11.32;;;5.55;;
24153;SDS011;12312;53.362;-1.518;2023-06-14T05:32:24;10.55;;;5.18;;
24153;SDS011;12312;53.362;-1.518;2023-06-14T05:35:08;15.18;;;6.18;;
24153;SDS011;12312;53.362;-1.518;2023-06-14T05:37:52;10.50;;;5.00;;
24153;SDS011;12312;53.362;-1.518;2023-06-14T05:40:37;10.20;;;4.32;;
24153;SDS011;12312;53.362;-1.518;2023-06-14T05:43:21;9.82;;;5.18;;
24153;SDS011;12312;53.362;-1.518;2023-06-14T05:46:05;8.07;;;5.30;;
24153;SDS011;12312;53.362;-1.518;2023-06-14T05:48:49;7.78;;;4.90;;
24153;SDS011;12312;53.362;-1.518;2023-06-14T05:51:34;10.68;;;4.90;;
24153;SDS011;12312;53.362;-1.518;2023-06-14T05:54:19;13.77;;;4.97;;
24153;SDS011;12312;53.362;-1.518;2023-06-14T05:57:02;10.55;;;5.05;;
24153;SDS011;12312;53.362;-1.518;2023-06-14T05:59:48;10.40;;;4.57;;
24153;SDS011;12312;53.362;-1.518;2023-06-14T06:02:32;11.20;;;4.75;;
24153;SDS011;12312;53.362;-1.518;2023-06-14T06:05:16;11.43;;;5.00;;
24153;SDS011;12312;53.362;-1.518;2023-06-14T06:08:00;12.65;;;5.30;;
24153;SDS011;12312;53.362;-1.518;2023-06-14T06:10:44;8.80;;;5.20;;
24153;SDS011;12312;53.362;-1.518;2023-06-14T06:13:28;11.50;;;4.80;;
24153;SDS011;12312;53.362;-1.518;2023-06-14T06:16:12;12.75;;;5.55;;
24153;SDS011;12312;53.362;-1.518;2023-06-14T06:18:56;8.20;;;4.88;;
24153;SDS011;12312;53.362;-1.518;2023-06-14T06:21:40;9.80;;;4.53;;
24153;SDS011;12312;53.362;-1.518;2023-06-14T06:24:24;7.90;;;4.18;;
24153;SDS011;12312;53.362;-1.518;2023-06-14T06:27:09;8.23;;;4.65;;
24153;SDS011;12312;53.362;-1.518;2023-06-14T06:29:54;7.18;;;4.35;;
24153;SDS011;12312;53.362;-1.518;2023-06-14T06:32:38;10.80;;;4.57;;
24153;SDS011;12312;53.362;-1.518;2023-06-14T06:35:22;10.20;;;4.53;;
24153;SDS011;12312;53.362;-1.518;2023-06-14T06:38:07;10.75;;;4.03;;
24153;SDS011;12312;53.362;-1.518;2023-06-14T06:40:52;12.27;;;4.78;;
24153;SDS011;12312;53.362;-1.518;2023-06-14T06:43:37;13.82;;;4.70;;
24153;SDS011;12312;53.362;-1.518;2023-06-14T06:46:21;10.52;;;4.82;;
24153;SDS011;12312;53.362;-1.518;2023-06-14T06:49:06;12.80;;;4.68;;
24153;SDS011;12312;53.362;-1.518;2023-06-14T06:54:47;11.93;;;5.25;;
24153;SDS011;12312;53.362;-1.518;2023-06-14T06:57:32;13.27;;;5.28;;
24153;SDS011;12312;53.362;-1.518;2023-06-14T07:00:17;22.60;;;5.32;;
24153;SDS011;12312;53.362;-1.518;2023-06-14T07:03:01;15.23;;;4.85;;
24153;SDS011;12312;53.362;-1.518;2023-06-14T07:05:47;11.15;;;4.80;;
24153;SDS011;12312;53.362;-1.518;2023-06-14T07:08:31;12.10;;;4.53;;
24153;SDS011;12312;53.362;-1.518;2023-06-14T07:11:15;14.68;;;4.88;;
24153;SDS011;12312;53.362;-1.518;2023-06-14T07:13:59;13.65;;;4.90;;
24153;SDS011;12312;53.362;-1.518;2023-06-14T07:16:43;11.77;;;4.78;;
24153;SDS011;12312;53.362;-1.518;2023-06-14T07:19:27;11.18;;;4.45;;
24153;SDS011;12312;53.362;-1.518;2023-06-14T07:22:11;14.10;;;5.00;;
24153;SDS011;12312;53.362;-1.518;2023-06-14T07:24:55;12.15;;;4.90;;
24153;SDS011;12312;53.362;-1.518;2023-06-14T07:27:40;11.13;;;4.50;;
24153;SDS011;12312;53.362;-1.518;2023-06-14T07:30:25;10.00;;;5.00;;
24153;SDS011;12312;53.362;-1.518;2023-06-14T07:33:10;12.97;;;4.60;;
24153;SDS011;12312;53.362;-1.518;2023-06-14T07:35:55;16.27;;;5.00;;
24153;SDS011;12312;53.362;-1.518;2023-06-14T07:38:40;14.80;;;5.20;;
24153;SDS011;12312;53.362;-1.518;2023-06-14T07:41:24;20.58;;;5.00;;
24153;SDS011;12312;53.362;-1.518;2023-06-14T07:44:09;15.68;;;5.13;;
24153;SDS011;12312;53.362;-1.518;2023-06-14T07:46:54;10.68;;;4.78;;
24153;SDS011;12312;53.362;-1.518;2023-06-14T07:49:42;14.38;;;5.28;;
24153;SDS011;12312;53.362;-1.518;2023-06-14T07:52:26;12.57;;;4.68;;
24153;SDS011;12312;53.362;-1.518;2023-06-14T07:55:10;10.07;;;4.40;;
24153;SDS011;12312;53.362;-1.518;2023-06-14T07:57:54;14.40;;;4.78;;
24153;SDS011;12312;53.362;-1.518;2023-06-14T08:00:39;14.77;;;5.10;;
24153;SDS011;12312;53.362;-1.518;2023-06-14T08:03:23;16.95;;;5.10;;
24153;SDS011;12312;53.362;-1.518;2023-06-14T08:06:07;15.00;;;5.45;;
24153;SDS011;12312;53.362;-1.518;2023-06-14T08:08:51;19.15;;;5.85;;
24153;SDS011;12312;53.362;-1.518;2023-06-14T08:11:36;14.57;;;5.70;;
24153;SDS011;12312;53.362;-1.518;2023-06-14T08:14:20;16.35;;;5.38;;
24153;SDS011;12312;53.362;-1.518;2023-06-14T08:17:04;14.13;;;5.05;;
24153;SDS011;12312;53.362;-1.518;2023-06-14T08:19:48;14.20;;;5.50;;
24153;SDS011;12312;53.362;-1.518;2023-06-14T08:22:33;18.00;;;5.60;;
24153;SDS011;12312;53.362;-1.518;2023-06-14T08:25:17;10.85;;;5.53;;
24153;SDS011;12312;53.362;-1.518;2023-06-14T08:28:02;17.30;;;5.75;;
24153;SDS011;12312;53.362;-1.518;2023-06-14T08:30:46;13.88;;;5.47;;
24153;SDS011;12312;53.362;-1.518;2023-06-14T08:33:31;10.82;;;5.13;;
24153;SDS011;12312;53.362;-1.518;2023-06-14T08:36:18;11.25;;;5.28;;
24153;SDS011;12312;53.362;-1.518;2023-06-14T08:39:02;15.75;;;5.68;;
24153;SDS011;12312;53.362;-1.518;2023-06-14T08:41:47;11.93;;;5.03;;
24153;SDS011;12312;53.362;-1.518;2023-06-14T08:44:34;17.50;;;5.43;;
24153;SDS011;12312;53.362;-1.518;2023-06-14T08:47:18;14.63;;;5.43;;
24153;SDS011;12312;53.362;-1.518;2023-06-14T08:50:04;17.90;;;5.75;;
24153;SDS011;12312;53.362;-1.518;2023-06-14T08:52:51;15.60;;;5.00;;
24153;SDS011;12312;53.362;-1.518;2023-06-14T08:55:38;12.23;;;4.65;;
24153;SDS011;12312;53.362;-1.518;2023-06-14T09:01:08;12.18;;;4.57;;
24153;SDS011;12312;53.362;-1.518;2023-06-14T09:03:53;13.70;;;4.57;;
24153;SDS011;12312;53.362;-1.518;2023-06-14T09:06:38;17.52;;;4.95;;
24153;SDS011;12312;53.362;-1.518;2023-06-14T09:09:24;15.52;;;4.75;;
24153;SDS011;12312;53.362;-1.518;2023-06-14T09:12:12;18.55;;;4.45;;
24153;SDS011;12312;53.362;-1.518;2023-06-14T09:14:57;14.85;;;5.10;;
24153;SDS011;12312;53.362;-1.518;2023-06-14T09:17:41;14.65;;;4.65;;
24153;SDS011;12312;53.362;-1.518;2023-06-14T09:20:26;17.20;;;6.03;;
24153;SDS011;12312;53.362;-1.518;2023-06-14T09:23:10;13.43;;;4.47;;
24153;SDS011;12312;53.362;-1.518;2023-06-14T09:25:54;16.58;;;5.03;;
24153;SDS011;12312;53.362;-1.518;2023-06-14T09:28:45;13.70;;;4.63;;
24153;SDS011;12312;53.362;-1.518;2023-06-14T09:31:34;11.80;;;4.93;;
24153;SDS011;12312;53.362;-1.518;2023-06-14T09:34:20;17.52;;;4.95;;
24153;SDS011;12312;53.362;-1.518;2023-06-14T09:37:07;16.75;;;5.38;;
24153;SDS011;12312;53.362;-1.518;2023-06-14T09:39:51;13.18;;;4.93;;
24153;SDS011;12312;53.362;-1.518;2023-06-14T09:42:35;13.68;;;4.60;;
24153;SDS011;12312;53.362;-1.518;2023-06-14T09:45:20;17.48;;;5.32;;
24153;SDS011;12312;53.362;-1.518;2023-06-14T09:48:06;15.20;;;4.53;;
24153;SDS011;12312;53.362;-1.518;2023-06-14T09:50:52;16.55;;;4.47;;
24153;SDS011;12312;53.362;-1.518;2023-06-14T09:53:41;12.68;;;4.45;;
24153;SDS011;12312;53.362;-1.518;2023-06-14T09:56:28;11.35;;;3.75;;
24153;SDS011;12312;53.362;-1.518;2023-06-14T09:59:13;13.55;;;3.78;;
24153;SDS011;12312;53.362;-1.518;2023-06-14T10:02:01;12.20;;;3.40;;
24153;SDS011;12312;53.362;-1.518;2023-06-14T10:04:57;9.60;;;4.00;;
24153;SDS011;12312;53.362;-1.518;2023-06-14T10:10:31;10.52;;;3.53;;
24153;SDS011;12312;53.362;-1.518;2023-06-14T10:13:16;12.10;;;3.20;;
24153;SDS011;12312;53.362;-1.518;2023-06-14T10:16:12;13.35;;;3.35;;
24153;SDS011;12312;53.362;-1.518;2023-06-14T10:22:17;14.05;;;3.08;;
24153;SDS011;12312;53.362;-1.518;2023-06-14T10:25:06;7.85;;;2.80;;
24153;SDS011;12312;53.362;-1.518;2023-06-14T10:28:02;15.73;;;3.30;;
24153;SDS011;12312;53.362;-1.518;2023-06-14T10:33:57;8.30;;;2.67;;
24153;SDS011;12312;53.362;-1.518;2023-06-14T10:36:41;6.38;;;2.47;;
24153;SDS011;12312;53.362;-1.518;2023-06-14T10:39:27;11.38;;;3.08;;
24153;SDS011;12312;53.362;-1.518;2023-06-14T10:42:11;9.18;;;2.83;;
24153;SDS011;12312;53.362;-1.518;2023-06-14T10:44:56;6.85;;;2.90;;
24153;SDS011;12312;53.362;-1.518;2023-06-14T10:47:43;8.32;;;2.72;;
24153;SDS011;12312;53.362;-1.518;2023-06-14T10:50:27;12.40;;;3.10;;
24153;SDS011;12312;53.362;-1.518;2023-06-14T10:53:24;7.43;;;2.85;;
24153;SDS011;12312;53.362;-1.518;2023-06-14T10:56:08;8.98;;;2.90;;
24153;SDS011;12312;53.362;-1.518;2023-06-14T10:58:55;13.82;;;2.90;;
24153;SDS011;12312;53.362;-1.518;2023-06-14T11:01:41;6.95;;;2.30;;
24153;SDS011;12312;53.362;-1.518;2023-06-14T11:04:49;6.90;;;2.50;;
24153;SDS011;12312;53.362;-1.518;2023-06-14T11:10:43;10.02;;;3.00;;
24153;SDS011;12312;53.362;-1.518;2023-06-14T11:13:29;8.40;;;2.63;;
24153;SDS011;12312;53.362;-1.518;2023-06-14T11:16:13;9.18;;;2.55;;
24153;SDS011;12312;53.362;-1.518;2023-06-14T11:21:46;11.18;;;3.00;;
24153;SDS011;12312;53.362;-1.518;2023-06-14T11:24:32;13.18;;;3.28;;
24153;SDS011;12312;53.362;-1.518;2023-06-14T11:27:16;5.50;;;2.95;;
24153;SDS011;12312;53.362;-1.518;2023-06-14T11:30:00;6.70;;;2.55;;
24153;SDS011;12312;53.362;-1.518;2023-06-14T11:32:48;11.25;;;2.95;;
24153;SDS011;12312;53.362;-1.518;2023-06-14T11:35:33;7.47;;;2.50;;
24153;SDS011;12312;53.362;-1.518;2023-06-14T11:38:18;14.05;;;3.10;;
24153;SDS011;12312;53.362;-1.518;2023-06-14T11:41:11;7.53;;;2.75;;
24153;SDS011;12312;53.362;-1.518;2023-06-14T11:43:55;8.60;;;2.78;;
24153;SDS011;12312;53.362;-1.518;2023-06-14T11:46:39;7.18;;;2.70;;
24153;SDS011;12312;53.362;-1.518;2023-06-14T11:49:23;9.75;;;3.05;;
24153;SDS011;12312;53.362;-1.518;2023-06-14T11:52:08;6.95;;;2.92;;
24153;SDS011;12312;53.362;-1.518;2023-06-14T11:54:52;13.52;;;3.15;;
24153;SDS011;12312;53.362;-1.518;2023-06-14T11:57:37;6.33;;;2.27;;
24153;SDS011;12312;53.362;-1.518;2023-06-14T12:00:25;6.53;;;2.35;;
24153;SDS011;12312;53.362;-1.518;2023-06-14T12:03:10;5.88;;;2.28;;
24153;SDS011;12312;53.362;-1.518;2023-06-14T12:06:06;9.48;;;2.83;;
24153;SDS011;12312;53.362;-1.518;2023-06-14T12:08:55;5.32;;;2.30;;
24153;SDS011;12312;53.362;-1.518;2023-06-14T12:11:39;8.77;;;2.67;;
24153;SDS011;12312;53.362;-1.518;2023-06-14T12:14:28;6.43;;;2.47;;
24153;SDS011;12312;53.362;-1.518;2023-06-14T12:17:13;7.00;;;2.92;;
24153;SDS011;12312;53.362;-1.518;2023-06-14T12:20:19;8.77;;;3.42;;
24153;SDS011;12312;53.362;-1.518;2023-06-14T12:23:05;7.68;;;2.40;;
24153;SDS011;12312;53.362;-1.518;2023-06-14T12:25:50;6.50;;;2.58;;
24153;SDS011;12312;53.362;-1.518;2023-06-14T12:28:35;6.85;;;2.63;;
24153;SDS011;12312;53.362;-1.518;2023-06-14T12:31:19;7.78;;;2.60;;
24153;SDS011;12312;53.362;-1.518;2023-06-14T12:34:03;9.00;;;2.50;;
24153;SDS011;12312;53.362;-1.518;2023-06-14T12:36:47;4.75;;;2.40;;
24153;SDS011;12312;53.362;-1.518;2023-06-14T12:39:32;10.63;;;2.63;;
24153;SDS011;12312;53.362;-1.518;2023-06-14T12:42:16;6.67;;;2.50;;
24153;SDS011;12312;53.362;-1.518;2023-06-14T12:45:00;7.30;;;2.70;;
24153;SDS011;12312;53.362;-1.518;2023-06-14T12:47:49;8.48;;;2.75;;
24153;SDS011;12312;53.362;-1.518;2023-06-14T12:50:35;5.80;;;2.47;;
24153;SDS011;12312;53.362;-1.518;2023-06-14T12:53:18;8.52;;;2.88;;
24153;SDS011;12312;53.362;-1.518;2023-06-14T12:56:04;5.40;;;2.33;;
24153;SDS011;12312;53.362;-1.518;2023-06-14T12:58:48;7.50;;;2.38;;
24153;SDS011;12312;53.362;-1.518;2023-06-14T13:01:33;10.48;;;2.50;;
24153;SDS011;12312;53.362;-1.518;2023-06-14T13:04:17;7.65;;;2.47;;
24153;SDS011;12312;53.362;-1.518;2023-06-14T13:07:02;7.78;;;2.92;;
24153;SDS011;12312;53.362;-1.518;2023-06-14T13:09:53;5.35;;;2.50;;
24153;SDS011;12312;53.362;-1.518;2023-06-14T13:12:37;5.22;;;2.85;;
24153;SDS011;12312;53.362;-1.518;2023-06-14T13:15:21;8.18;;;2.78;;
24153;SDS011;12312;53.362;-1.518;2023-06-14T13:18:05;7.82;;;2.53;;
24153;SDS011;12312;53.362;-1.518;2023-06-14T13:20:49;6.87;;;2.47;;
24153;SDS011;12312;53.362;-1.518;2023-06-14T13:23:33;8.93;;;2.50;;
24153;SDS011;12312;53.362;-1.518;2023-06-14T13:26:17;5.40;;;2.40;;
24153;SDS011;12312;53.362;-1.518;2023-06-14T13:29:02;5.75;;;2.35;;
24153;SDS011;12312;53.362;-1.518;2023-06-14T13:31:46;7.72;;;2.78;;
24153;SDS011;12312;53.362;-1.518;2023-06-14T13:34:29;7.65;;;2.33;;
24153;SDS011;12312;53.362;-1.518;2023-06-14T13:37:13;9.63;;;2.40;;
24153;SDS011;12312;53.362;-1.518;2023-06-14T13:39:58;6.47;;;2.60;;
24153;SDS011;12312;53.362;-1.518;2023-06-14T13:42:42;5.93;;;2.50;;
24153;SDS011;12312;53.362;-1.518;2023-06-14T13:45:27;7.22;;;2.65;;
24153;SDS011;12312;53.362;-1.518;2023-06-14T13:48:11;12.50;;;2.60;;
24153;SDS011;12312;53.362;-1.518;2023-06-14T13:50:56;6.60;;;2.40;;
24153;SDS011;12312;53.362;-1.518;2023-06-14T13:53:40;7.70;;;2.53;;
24153;SDS011;12312;53.362;-1.518;2023-06-14T13:56:24;6.70;;;2.47;;
24153;SDS011;12312;53.362;-1.518;2023-06-14T13:59:08;7.00;;;2.15;;
24153;SDS011;12312;53.362;-1.518;2023-06-14T14:01:53;10.15;;;2.67;;
24153;SDS011;12312;53.362;-1.518;2023-06-14T14:04:37;7.05;;;2.78;;
24153;SDS011;12312;53.362;-1.518;2023-06-14T14:07:21;8.45;;;2.88;;
24153;SDS011;12312;53.362;-1.518;2023-06-14T14:10:06;9.30;;;2.50;;
24153;SDS011;12312;53.362;-1.518;2023-06-14T14:12:51;5.13;;;2.33;;
24153;SDS011;12312;53.362;-1.518;2023-06-14T14:15:36;9.85;;;2.70;;
24153;SDS011;12312;53.362;-1.518;2023-06-14T14:18:20;5.32;;;2.65;;
24153;SDS011;12312;53.362;-1.518;2023-06-14T14:21:06;5.25;;;2.40;;
24153;SDS011;12312;53.362;-1.518;2023-06-14T14:23:50;6.13;;;2.50;;
24153;SDS011;12312;53.362;-1.518;2023-06-14T14:26:35;8.00;;;2.25;;
24153;SDS011;12312;53.362;-1.518;2023-06-14T14:29:19;5.22;;;2.40;;
24153;SDS011;12312;53.362;-1.518;2023-06-14T14:32:03;14.40;;;2.88;;
24153;SDS011;12312;53.362;-1.518;2023-06-14T14:34:48;5.05;;;2.30;;
24153;SDS011;12312;53.362;-1.518;2023-06-14T14:37:31;8.23;;;2.90;;
24153;SDS011;12312;53.362;-1.518;2023-06-14T14:40:16;5.90;;;1.90;;
24153;SDS011;12312;53.362;-1.518;2023-06-14T14:43:00;8.63;;;2.10;;
24153;SDS011;12312;53.362;-1.518;2023-06-14T14:45:44;10.25;;;2.60;;
24153;SDS011;12312;53.362;-1.518;2023-06-14T14:48:27;5.90;;;2.33;;
24153;SDS011;12312;53.362;-1.518;2023-06-14T14:51:12;7.00;;;2.40;;
24153;SDS011;12312;53.362;-1.518;2023-06-14T14:53:55;4.50;;;2.03;;
24153;SDS011;12312;53.362;-1.518;2023-06-14T14:56:39;7.35;;;2.15;;
24153;SDS011;12312;53.362;-1.518;2023-06-14T14:59:23;9.70;;;2.72;;
24153;SDS011;12312;53.362;-1.518;2023-06-14T15:02:07;8.38;;;2.53;;
24153;SDS011;12312;53.362;-1.518;2023-06-14T15:04:51;8.40;;;2.40;;
24153;SDS011;12312;53.362;-1.518;2023-06-14T15:07:35;5.30;;;2.05;;
24153;SDS011;12312;53.362;-1.518;2023-06-14T15:10:19;10.40;;;3.22;;
24153;SDS011;12312;53.362;-1.518;2023-06-14T15:13:03;7.40;;;2.50;;
24153;SDS011;12312;53.362;-1.518;2023-06-14T15:15:47;6.80;;;2.15;;
24153;SDS011;12312;53.362;-1.518;2023-06-14T15:18:31;8.00;;;2.30;;
24153;SDS011;12312;53.362;-1.518;2023-06-14T15:21:15;6.18;;;2.55;;
24153;SDS011;12312;53.362;-1.518;2023-06-14T15:24:01;8.02;;;2.20;;
24153;SDS011;12312;53.362;-1.518;2023-06-14T15:26:45;7.88;;;2.35;;
24153;SDS011;12312;53.362;-1.518;2023-06-14T15:29:29;6.18;;;2.00;;
24153;SDS011;12312;53.362;-1.518;2023-06-14T15:32:13;5.28;;;1.98;;
24153;SDS011;12312;53.362;-1.518;2023-06-14T15:34:57;7.45;;;2.17;;
24153;SDS011;12312;53.362;-1.518;2023-06-14T15:37:41;7.60;;;1.80;;
24153;SDS011;12312;53.362;-1.518;2023-06-14T15:40:25;8.85;;;2.03;;
24153;SDS011;12312;53.362;-1.518;2023-06-14T15:43:09;4.47;;;2.08;;
24153;SDS011;12312;53.362;-1.518;2023-06-14T15:45:53;7.88;;;2.00;;
24153;SDS011;12312;53.362;-1.518;2023-06-14T15:48:37;6.18;;;2.10;;
24153;SDS011;12312;53.362;-1.518;2023-06-14T15:51:21;6.43;;;1.80;;
24153;SDS011;12312;53.362;-1.518;2023-06-14T15:54:05;5.72;;;2.15;;
24153;SDS011;12312;53.362;-1.518;2023-06-14T15:56:50;5.40;;;1.85;;
24153;SDS011;12312;53.362;-1.518;2023-06-14T15:59:33;9.18;;;2.30;;
24153;SDS011;12312;53.362;-1.518;2023-06-14T16:02:18;4.75;;;2.05;;
24153;SDS011;12312;53.362;-1.518;2023-06-14T16:05:02;7.80;;;1.92;;
24153;SDS011;12312;53.362;-1.518;2023-06-14T16:07:46;6.43;;;2.03;;
24153;SDS011;12312;53.362;-1.518;2023-06-14T16:10:31;9.00;;;2.22;;
24153;SDS011;12312;53.362;-1.518;2023-06-14T16:13:15;4.82;;;1.92;;
24153;SDS011;12312;53.362;-1.518;2023-06-14T16:15:59;4.75;;;2.40;;
24153;SDS011;12312;53.362;-1.518;2023-06-14T16:18:43;6.63;;;1.98;;
24153;SDS011;12312;53.362;-1.518;2023-06-14T16:21:27;5.13;;;1.55;;
24153;SDS011;12312;53.362;-1.518;2023-06-14T16:24:11;7.78;;;2.03;;
24153;SDS011;12312;53.362;-1.518;2023-06-14T16:26:55;5.28;;;2.10;;
24153;SDS011;12312;53.362;-1.518;2023-06-14T16:29:39;10.73;;;2.35;;
24153;SDS011;12312;53.362;-1.518;2023-06-14T16:32:23;5.65;;;2.10;;
24153;SDS011;12312;53.362;-1.518;2023-06-14T16:35:08;4.38;;;1.70;;
24153;SDS011;12312;53.362;-1.518;2023-06-14T16:37:52;3.63;;;1.70;;
24153;SDS011;12312;53.362;-1.518;2023-06-14T16:40:36;6.38;;;1.83;;
24153;SDS011;12312;53.362;-1.518;2023-06-14T16:43:20;6.32;;;1.95;;
24153;SDS011;12312;53.362;-1.518;2023-06-14T16:46:04;6.60;;;2.15;;